sensor_id;sensor_type;location;lat;lon;timestamp;noise_LAeq;noise_LA_min;noise_LA_max;noise_LA01;noise_LA95
77361;Laerm;66427;51.798;10.954;2023-03-01T00:00:46;32.33;27.91;40.06;;
77361;Laerm;66427;51.798;10.954;2023-03-01T00:03:11;48.76;30.59;65.61;;
77361;Laerm;66427;51.798;10.954;2023-03-01T00:05:43;35.92;30.63;43.80;;
77361;Laerm;66427;51.798;10.954;2023-03-01T00:08:09;36.68;28.40;45.59;;
77361;Laerm;66427;51.798;10.954;2023-03-01T00:10:34;29.76;27.87;34.70;;
77361;Laerm;66427;51.798;10.954;2023-03-01T00:13:01;39.14;31.43;49.96;;
77361;Laerm;66427;51.798;10.954;2023-03-01T00:15:27;36.54;29.48;45.20;;
77361;Laerm;66427;51.798;10.954;2023-03-01T00:17:53;32.98;27.58;43.21;;
77361;Laerm;66427;51.798;10.954;2023-03-01T00:20:18;36.73;28.89;44.16;;
77361;Laerm;66427;51.798;10.954;2023-03-01T00:22:45;52.47;29.24;69.79;;
77361;Laerm;66427;51.798;10.954;2023-03-01T00:25:11;37.86;30.50;44.52;;
77361;Laerm;66427;51.798;10.954;2023-03-01T00:27:37;34.98;28.69;44.97;;
77361;Laerm;66427;51.798;10.954;2023-03-01T00:30:03;34.17;28.63;43.68;;
77361;Laerm;66427;51.798;10.954;2023-03-01T00:32:29;35.57;30.41;43.62;;
77361;Laerm;66427;51.798;10.954;2023-03-01T00:34:55;34.50;28.33;39.78;;
77361;Laerm;66427;51.798;10.954;2023-03-01T00:37:21;30.74;27.92;37.10;;
77361;Laerm;66427;51.798;10.954;2023-03-01T00:39:48;30.92;28.39;37.97;;
77361;Laerm;66427;51.798;10.954;2023-03-01T00:42:14;31.36;27.90;37.03;;
77361;Laerm;66427;51.798;10.954;2023-03-01T00:44:40;29.25;27.72;34.32;;
77361;Laerm;66427;51.798;10.954;2023-03-01T00:47:06;31.21;27.70;44.32;;
77361;Laerm;66427;51.798;10.954;2023-03-01T00:49:32;30.23;27.73;36.41;;
77361;Laerm;66427;51.798;10.954;2023-03-01T00:51:57;38.62;28.84;51.66;;
77361;Laerm;66427;51.798;10.954;2023-03-01T00:54:23;35.14;29.14;47.95;;
77361;Laerm;66427;51.798;10.954;2023-03-01T00:56:49;34.56;28.29;43.71;;
77361;Laerm;66427;51.798;10.954;2023-03-01T00:59:15;32.88;29.09;38.84;;
77361;Laerm;66427;51.798;10.954;2023-03-01T01:01:41;32.94;28.54;40.37;;
77361;Laerm;66427;51.798;10.954;2023-03-01T01:04:08;33.38;28.88;40.57;;
77361;Laerm;66427;51.798;10.954;2023-03-01T01:06:39;35.44;29.39;43.24;;
77361;Laerm;66427;51.798;10.954;2023-03-01T01:09:08;34.39;28.93;43.83;;
77361;Laerm;66427;51.798;10.954;2023-03-01T01:11:34;36.42;30.63;45.58;;
77361;Laerm;66427;51.798;10.954;2023-03-01T01:14:02;38.06;31.33;44.02;;
77361;Laerm;66427;51.798;10.954;2023-03-01T01:16:28;37.43;29.89;45.45;;
77361;Laerm;66427;51.798;10.954;2023-03-01T01:18:53;34.11;29.37;40.57;;
77361;Laerm;66427;51.798;10.954;2023-03-01T01:21:21;39.40;31.50;43.87;;
77361;Laerm;66427;51.798;10.954;2023-03-01T01:23:47;36.87;30.22;45.26;;
77361;Laerm;66427;51.798;10.954;2023-03-01T01:26:17;36.33;29.20;44.49;;
77361;Laerm;66427;51.798;10.954;2023-03-01T01:28:43;34.58;30.81;41.45;;
77361;Laerm;66427;51.798;10.954;2023-03-01T01:31:10;33.21;28.78;40.44;;
77361;Laerm;66427;51.798;10.954;2023-03-01T01:33:36;35.89;30.58;41.79;;
77361;Laerm;66427;51.798;10.954;2023-03-01T01:36:02;31.31;28.09;39.52;;
77361;Laerm;66427;51.798;10.954;2023-03-01T01:38:29;35.28;29.28;42.74;;
77361;Laerm;66427;51.798;10.954;2023-03-01T01:40:55;34.42;29.17;41.78;;
77361;Laerm;66427;51.798;10.954;2023-03-01T01:43:23;39.58;31.62;48.91;;
77361;Laerm;66427;51.798;10.954;2023-03-01T01:45:49;30.94;28.23;44.53;;
77361;Laerm;66427;51.798;10.954;2023-03-01T01:48:20;36.26;27.97;47.79;;
77361;Laerm;66427;51.798;10.954;2023-03-01T01:50:49;37.53;33.09;47.55;;
77361;Laerm;66427;51.798;10.954;2023-03-01T01:53:18;35.81;31.04;43.76;;
77361;Laerm;66427;51.798;10.954;2023-03-01T01:55:45;34.37;30.09;44.55;;
77361;Laerm;66427;51.798;10.954;2023-03-01T01:58:14;36.37;31.26;44.37;;
77361;Laerm;66427;51.798;10.954;2023-03-01T02:00:41;36.64;30.54;45.75;;
77361;Laerm;66427;51.798;10.954;2023-03-01T02:03:08;33.84;28.33;52.28;;
77361;Laerm;66427;51.798;10.954;2023-03-01T02:08:01;49.69;28.94;65.30;;
77361;Laerm;66427;51.798;10.954;2023-03-01T02:10:27;32.88;29.33;42.69;;
77361;Laerm;66427;51.798;10.954;2023-03-01T02:12:53;35.66;29.58;44.26;;
77361;Laerm;66427;51.798;10.954;2023-03-01T02:15:21;34.81;30.15;44.51;;
77361;Laerm;66427;51.798;10.954;2023-03-01T02:17:46;35.00;30.01;41.33;;
77361;Laerm;66427;51.798;10.954;2023-03-01T02:20:16;38.10;32.57;47.91;;
77361;Laerm;66427;51.798;10.954;2023-03-01T02:22:46;35.31;30.48;42.68;;
77361;Laerm;66427;51.798;10.954;2023-03-01T02:30:28;32.37;29.31;38.27;;
77361;Laerm;66427;51.798;10.954;2023-03-01T02:32:55;43.37;30.33;58.71;;
77361;Laerm;66427;51.798;10.954;2023-03-01T02:35:23;39.56;33.67;48.98;;
77361;Laerm;66427;51.798;10.954;2023-03-01T02:37:48;37.87;30.84;48.95;;
77361;Laerm;66427;51.798;10.954;2023-03-01T02:40:16;39.88;31.45;50.63;;
77361;Laerm;66427;51.798;10.954;2023-03-01T02:42:52;34.00;29.62;39.79;;
77361;Laerm;66427;51.798;10.954;2023-03-01T02:45:20;38.00;30.68;46.34;;
77361;Laerm;66427;51.798;10.954;2023-03-01T02:47:46;35.80;30.95;43.80;;
77361;Laerm;66427;51.798;10.954;2023-03-01T02:53:02;38.35;31.84;52.17;;
77361;Laerm;66427;51.798;10.954;2023-03-01T02:55:30;37.43;33.07;43.64;;
77361;Laerm;66427;51.798;10.954;2023-03-01T02:57:56;36.31;30.80;42.40;;
77361;Laerm;66427;51.798;10.954;2023-03-01T03:00:29;52.16;34.79;68.90;;
77361;Laerm;66427;51.798;10.954;2023-03-01T03:02:58;53.84;35.87;72.28;;
77361;Laerm;66427;51.798;10.954;2023-03-01T03:05:24;38.50;34.57;43.01;;
77361;Laerm;66427;51.798;10.954;2023-03-01T03:07:51;42.58;35.84;53.71;;
77361;Laerm;66427;51.798;10.954;2023-03-01T03:10:25;49.10;30.72;64.71;;
77361;Laerm;66427;51.798;10.954;2023-03-01T03:12:52;39.84;31.75;49.01;;
77361;Laerm;66427;51.798;10.954;2023-03-01T03:15:19;40.65;33.34;47.18;;
77361;Laerm;66427;51.798;10.954;2023-03-01T03:17:46;40.72;32.83;48.50;;
77361;Laerm;66427;51.798;10.954;2023-03-01T03:20:13;38.57;33.32;45.19;;
77361;Laerm;66427;51.798;10.954;2023-03-01T03:22:44;39.94;33.31;47.44;;
77361;Laerm;66427;51.798;10.954;2023-03-01T03:25:10;43.79;36.13;61.50;;
77361;Laerm;66427;51.798;10.954;2023-03-01T03:27:39;40.45;32.37;58.13;;
77361;Laerm;66427;51.798;10.954;2023-03-01T03:30:06;38.66;32.70;57.07;;
77361;Laerm;66427;51.798;10.954;2023-03-01T03:32:36;39.49;33.24;45.30;;
77361;Laerm;66427;51.798;10.954;2023-03-01T03:35:03;39.90;34.74;48.29;;
77361;Laerm;66427;51.798;10.954;2023-03-01T03:37:37;39.64;35.83;47.96;;
77361;Laerm;66427;51.798;10.954;2023-03-01T03:40:22;41.89;36.83;50.40;;
77361;Laerm;66427;51.798;10.954;2023-03-01T03:42:47;41.35;36.26;50.99;;
77361;Laerm;66427;51.798;10.954;2023-03-01T03:45:14;41.38;35.04;49.41;;
77361;Laerm;66427;51.798;10.954;2023-03-01T03:47:40;38.22;34.89;45.09;;
77361;Laerm;66427;51.798;10.954;2023-03-01T03:50:06;40.32;36.00;45.75;;
77361;Laerm;66427;51.798;10.954;2023-03-01T03:52:32;41.74;36.80;61.20;;
77361;Laerm;66427;51.798;10.954;2023-03-01T03:54:58;42.01;36.70;47.49;;
77361;Laerm;66427;51.798;10.954;2023-03-01T03:57:24;41.22;37.03;48.40;;
77361;Laerm;66427;51.798;10.954;2023-03-01T03:59:49;42.19;35.23;58.38;;
77361;Laerm;66427;51.798;10.954;2023-03-01T04:02:15;43.03;37.53;49.24;;
77361;Laerm;66427;51.798;10.954;2023-03-01T04:04:49;42.41;36.82;47.89;;
77361;Laerm;66427;51.798;10.954;2023-03-01T04:07:16;42.11;38.26;47.73;;
77361;Laerm;66427;51.798;10.954;2023-03-01T04:09:43;42.72;38.32;50.65;;
77361;Laerm;66427;51.798;10.954;2023-03-01T04:12:09;44.06;38.29;48.26;;
77361;Laerm;66427;51.798;10.954;2023-03-01T04:14:35;50.80;41.35;66.66;;
77361;Laerm;66427;51.798;10.954;2023-03-01T04:17:01;43.01;37.33;59.76;;
77361;Laerm;66427;51.798;10.954;2023-03-01T04:19:31;54.39;37.61;72.06;;
77361;Laerm;66427;51.798;10.954;2023-03-01T04:22:01;42.92;38.57;49.70;;
77361;Laerm;66427;51.798;10.954;2023-03-01T04:24:32;48.05;39.50;61.24;;
77361;Laerm;66427;51.798;10.954;2023-03-01T04:26:58;50.69;40.33;63.98;;
77361;Laerm;66427;51.798;10.954;2023-03-01T04:29:24;54.31;40.00;66.93;;
77361;Laerm;66427;51.798;10.954;2023-03-01T04:31:50;46.99;38.91;62.30;;
77361;Laerm;66427;51.798;10.954;2023-03-01T04:34:15;45.70;39.00;62.20;;
77361;Laerm;66427;51.798;10.954;2023-03-01T04:36:41;44.29;40.63;49.83;;
77361;Laerm;66427;51.798;10.954;2023-03-01T04:39:07;51.67;40.42;67.26;;
77361;Laerm;66427;51.798;10.954;2023-03-01T04:41:37;49.89;40.06;63.52;;
77361;Laerm;66427;51.798;10.954;2023-03-01T04:44:08;43.93;38.80;49.95;;
77361;Laerm;66427;51.798;10.954;2023-03-01T04:46:34;55.44;41.57;69.99;;
77361;Laerm;66427;51.798;10.954;2023-03-01T04:49:00;49.90;39.79;66.04;;
77361;Laerm;66427;51.798;10.954;2023-03-01T04:51:26;55.21;40.07;72.26;;
77361;Laerm;66427;51.798;10.954;2023-03-01T04:53:52;50.46;41.20;70.81;;
77361;Laerm;66427;51.798;10.954;2023-03-01T04:56:18;50.39;39.32;66.71;;
77361;Laerm;66427;51.798;10.954;2023-03-01T04:58:44;48.36;41.55;62.74;;
77361;Laerm;66427;51.798;10.954;2023-03-01T05:01:13;51.99;39.15;67.54;;
77361;Laerm;66427;51.798;10.954;2023-03-01T05:03:40;51.15;40.91;62.15;;
77361;Laerm;66427;51.798;10.954;2023-03-01T05:06:06;48.56;42.58;58.38;;
77361;Laerm;66427;51.798;10.954;2023-03-01T05:08:32;50.58;40.95;65.13;;
77361;Laerm;66427;51.798;10.954;2023-03-01T05:10:59;55.79;41.56;70.11;;
77361;Laerm;66427;51.798;10.954;2023-03-01T05:13:25;52.74;41.62;68.65;;
77361;Laerm;66427;51.798;10.954;2023-03-01T05:15:54;48.66;42.26;60.91;;
77361;Laerm;66427;51.798;10.954;2023-03-01T05:18:20;48.51;44.16;52.87;;
77361;Laerm;66427;51.798;10.954;2023-03-01T05:20:46;47.44;44.31;50.24;;
77361;Laerm;66427;51.798;10.954;2023-03-01T05:23:12;48.31;44.96;53.98;;
77361;Laerm;66427;51.798;10.954;2023-03-01T05:25:38;53.32;45.88;64.85;;
77361;Laerm;66427;51.798;10.954;2023-03-01T05:28:05;54.96;46.23;64.91;;
77361;Laerm;66427;51.798;10.954;2023-03-01T05:30:32;49.25;44.81;55.17;;
77361;Laerm;66427;51.798;10.954;2023-03-01T05:32:58;54.91;44.31;69.64;;
77361;Laerm;66427;51.798;10.954;2023-03-01T05:35:24;57.64;44.59;72.23;;
77361;Laerm;66427;51.798;10.954;2023-03-01T05:37:50;54.38;43.97;67.03;;
77361;Laerm;66427;51.798;10.954;2023-03-01T05:40:17;54.50;44.09;68.93;;
77361;Laerm;66427;51.798;10.954;2023-03-01T05:42:47;55.28;45.79;66.56;;
77361;Laerm;66427;51.798;10.954;2023-03-01T05:45:13;57.48;50.62;68.63;;
77361;Laerm;66427;51.798;10.954;2023-03-01T05:47:40;56.47;49.88;68.98;;
77361;Laerm;66427;51.798;10.954;2023-03-01T05:50:12;56.40;45.34;66.30;;
77361;Laerm;66427;51.798;10.954;2023-03-01T05:52:39;57.20;46.31;70.55;;
77361;Laerm;66427;51.798;10.954;2023-03-01T05:55:04;60.23;45.57;80.31;;
77361;Laerm;66427;51.798;10.954;2023-03-01T05:57:30;57.06;46.94;68.98;;
77361;Laerm;66427;51.798;10.954;2023-03-01T05:59:56;58.44;45.52;70.65;;
77361;Laerm;66427;51.798;10.954;2023-03-01T06:02:22;55.99;45.70;68.78;;
77361;Laerm;66427;51.798;10.954;2023-03-01T06:04:48;54.08;44.50;66.44;;
77361;Laerm;66427;51.798;10.954;2023-03-01T06:07:14;58.45;45.96;70.72;;
77361;Laerm;66427;51.798;10.954;2023-03-01T06:09:39;57.39;45.65;75.92;;
77361;Laerm;66427;51.798;10.954;2023-03-01T06:12:05;54.75;46.17;65.56;;
77361;Laerm;66427;51.798;10.954;2023-03-01T06:14:31;56.91;47.59;71.18;;
77361;Laerm;66427;51.798;10.954;2023-03-01T06:16:57;54.09;47.93;66.22;;
77361;Laerm;66427;51.798;10.954;2023-03-01T06:19:23;56.54;47.00;68.81;;
77361;Laerm;66427;51.798;10.954;2023-03-01T06:21:49;63.91;47.93;81.28;;
77361;Laerm;66427;51.798;10.954;2023-03-01T06:24:16;61.04;45.24;76.98;;
77361;Laerm;66427;51.798;10.954;2023-03-01T06:26:41;59.91;45.53;69.32;;
77361;Laerm;66427;51.798;10.954;2023-03-01T06:29:07;60.92;46.49;72.25;;
77361;Laerm;66427;51.798;10.954;2023-03-01T06:31:33;61.40;47.04;71.89;;
77361;Laerm;66427;51.798;10.954;2023-03-01T06:33:59;57.67;44.82;68.45;;
77361;Laerm;66427;51.798;10.954;2023-03-01T06:36:25;61.16;45.28;75.93;;
77361;Laerm;66427;51.798;10.954;2023-03-01T06:38:51;59.01;45.17;72.30;;
77361;Laerm;66427;51.798;10.954;2023-03-01T06:41:17;54.99;44.06;71.88;;
77361;Laerm;66427;51.798;10.954;2023-03-01T06:43:42;50.58;43.59;64.49;;
77361;Laerm;66427;51.798;10.954;2023-03-01T06:46:08;46.23;43.11;57.31;;
77361;Laerm;66427;51.798;10.954;2023-03-01T06:48:34;52.35;43.93;66.21;;
77361;Laerm;66427;51.798;10.954;2023-03-01T06:51:00;55.32;45.01;69.37;;
77361;Laerm;66427;51.798;10.954;2023-03-01T06:53:27;60.40;45.24;71.66;;
77361;Laerm;66427;51.798;10.954;2023-03-01T06:55:54;52.60;42.76;65.66;;
77361;Laerm;66427;51.798;10.954;2023-03-01T06:58:19;61.19;44.86;76.58;;
77361;Laerm;66427;51.798;10.954;2023-03-01T07:00:46;54.46;43.02;67.26;;
77361;Laerm;66427;51.798;10.954;2023-03-01T07:03:12;53.87;42.39;67.22;;
77361;Laerm;66427;51.798;10.954;2023-03-01T07:05:38;58.39;43.06;71.91;;
77361;Laerm;66427;51.798;10.954;2023-03-01T07:08:03;56.25;43.61;67.87;;
77361;Laerm;66427;51.798;10.954;2023-03-01T07:10:29;56.95;43.37;68.15;;
77361;Laerm;66427;51.798;10.954;2023-03-01T07:12:56;47.44;42.47;54.97;;
77361;Laerm;66427;51.798;10.954;2023-03-01T07:15:22;57.21;43.12;73.02;;
77361;Laerm;66427;51.798;10.954;2023-03-01T07:17:48;55.57;43.08;69.31;;
77361;Laerm;66427;51.798;10.954;2023-03-01T07:20:15;57.24;44.36;67.85;;
77361;Laerm;66427;51.798;10.954;2023-03-01T07:22:42;54.40;42.02;69.09;;
77361;Laerm;66427;51.798;10.954;2023-03-01T07:25:08;49.68;41.54;63.99;;
77361;Laerm;66427;51.798;10.954;2023-03-01T07:27:34;56.21;43.84;73.19;;
77361;Laerm;66427;51.798;10.954;2023-03-01T07:30:00;55.22;43.46;67.42;;
77361;Laerm;66427;51.798;10.954;2023-03-01T07:32:26;50.54;41.86;62.73;;
77361;Laerm;66427;51.798;10.954;2023-03-01T07:34:51;57.63;43.76;73.52;;
77361;Laerm;66427;51.798;10.954;2023-03-01T07:37:17;60.53;41.74;76.48;;
77361;Laerm;66427;51.798;10.954;2023-03-01T07:39:44;50.91;41.05;64.65;;
77361;Laerm;66427;51.798;10.954;2023-03-01T07:42:09;53.98;40.67;67.82;;
77361;Laerm;66427;51.798;10.954;2023-03-01T07:44:36;50.73;39.77;64.15;;
77361;Laerm;66427;51.798;10.954;2023-03-01T07:47:02;54.33;39.33;69.49;;
77361;Laerm;66427;51.798;10.954;2023-03-01T07:49:28;52.33;38.68;66.00;;
77361;Laerm;66427;51.798;10.954;2023-03-01T07:51:54;55.83;40.22;68.51;;
77361;Laerm;66427;51.798;10.954;2023-03-01T07:54:20;56.64;42.91;67.32;;
77361;Laerm;66427;51.798;10.954;2023-03-01T07:56:46;55.77;42.41;69.61;;
77361;Laerm;66427;51.798;10.954;2023-03-01T07:59:11;57.72;42.31;71.14;;
77361;Laerm;66427;51.798;10.954;2023-03-01T08:01:37;53.61;41.34;67.37;;
77361;Laerm;66427;51.798;10.954;2023-03-01T08:04:03;55.59;40.27;69.62;;
77361;Laerm;66427;51.798;10.954;2023-03-01T08:06:33;56.99;40.03;68.63;;
77361;Laerm;66427;51.798;10.954;2023-03-01T08:08:59;61.85;41.74;74.58;;
77361;Laerm;66427;51.798;10.954;2023-03-01T08:11:25;66.90;65.34;71.05;;
77361;Laerm;66427;51.798;10.954;2023-03-01T08:13:53;69.47;54.44;81.63;;
77361;Laerm;66427;51.798;10.954;2023-03-01T08:16:19;59.96;41.84;72.79;;
77361;Laerm;66427;51.798;10.954;2023-03-01T08:18:45;56.51;39.06;72.79;;
77361;Laerm;66427;51.798;10.954;2023-03-01T08:21:12;55.62;37.53;67.86;;
77361;Laerm;66427;51.798;10.954;2023-03-01T08:23:39;55.12;38.21;68.40;;
77361;Laerm;66427;51.798;10.954;2023-03-01T08:26:12;56.55;39.01;67.94;;
77361;Laerm;66427;51.798;10.954;2023-03-01T08:28:38;52.91;39.71;63.84;;
77361;Laerm;66427;51.798;10.954;2023-03-01T08:34:03;55.37;38.08;69.98;;
77361;Laerm;66427;51.798;10.954;2023-03-01T08:36:32;56.00;39.18;70.98;;
77361;Laerm;66427;51.798;10.954;2023-03-01T08:38:58;53.86;39.43;65.46;;
77361;Laerm;66427;51.798;10.954;2023-03-01T08:41:24;55.98;39.40;67.14;;
77361;Laerm;66427;51.798;10.954;2023-03-01T08:43:50;55.32;38.26;68.56;;
77361;Laerm;66427;51.798;10.954;2023-03-01T08:46:18;56.96;40.58;69.20;;
77361;Laerm;66427;51.798;10.954;2023-03-01T08:48:44;58.08;40.65;72.86;;
77361;Laerm;66427;51.798;10.954;2023-03-01T08:51:11;57.43;38.47;74.67;;
77361;Laerm;66427;51.798;10.954;2023-03-01T08:53:37;54.33;38.60;65.98;;
77361;Laerm;66427;51.798;10.954;2023-03-01T08:56:03;54.86;39.50;67.06;;
77361;Laerm;66427;51.798;10.954;2023-03-01T08:58:29;57.97;39.75;68.78;;
77361;Laerm;66427;51.798;10.954;2023-03-01T09:00:55;60.83;38.96;86.04;;
77361;Laerm;66427;51.798;10.954;2023-03-01T09:03:22;55.00;38.08;64.67;;
77361;Laerm;66427;51.798;10.954;2023-03-01T09:05:48;54.26;40.03;65.51;;
77361;Laerm;66427;51.798;10.954;2023-03-01T09:08:18;52.41;38.48;64.92;;
77361;Laerm;66427;51.798;10.954;2023-03-01T09:10:44;57.98;41.18;69.91;;
77361;Laerm;66427;51.798;10.954;2023-03-01T09:13:10;58.96;37.80;71.32;;
77361;Laerm;66427;51.798;10.954;2023-03-01T09:15:37;54.72;38.77;67.98;;
77361;Laerm;66427;51.798;10.954;2023-03-01T09:18:03;54.95;38.69;69.87;;
77361;Laerm;66427;51.798;10.954;2023-03-01T09:20:29;56.75;38.56;69.47;;
77361;Laerm;66427;51.798;10.954;2023-03-01T09:22:56;52.51;37.39;66.59;;
77361;Laerm;66427;51.798;10.954;2023-03-01T09:25:22;63.52;39.03;79.71;;
77361;Laerm;66427;51.798;10.954;2023-03-01T09:27:52;57.01;37.84;75.56;;
77361;Laerm;66427;51.798;10.954;2023-03-01T09:30:18;56.54;37.10;71.65;;
77361;Laerm;66427;51.798;10.954;2023-03-01T09:32:44;54.07;37.59;66.69;;
77361;Laerm;66427;51.798;10.954;2023-03-01T09:35:10;59.66;38.69;74.24;;
77361;Laerm;66427;51.798;10.954;2023-03-01T09:37:36;60.50;38.99;78.46;;
77361;Laerm;66427;51.798;10.954;2023-03-01T09:40:12;58.85;38.46;71.21;;
77361;Laerm;66427;51.798;10.954;2023-03-01T09:42:45;61.35;38.00;77.63;;
77361;Laerm;66427;51.798;10.954;2023-03-01T09:45:19;47.52;37.87;62.51;;
77361;Laerm;66427;51.798;10.954;2023-03-01T09:47:49;48.58;38.41;64.08;;
77361;Laerm;66427;51.798;10.954;2023-03-01T09:50:16;59.33;39.42;75.58;;
77361;Laerm;66427;51.798;10.954;2023-03-01T09:55:29;58.25;39.14;75.75;;
77361;Laerm;66427;51.798;10.954;2023-03-01T09:57:59;60.57;40.19;72.95;;
77361;Laerm;66427;51.798;10.954;2023-03-01T10:00:33;54.07;39.73;64.08;;
77361;Laerm;66427;51.798;10.954;2023-03-01T10:05:37;49.70;38.59;64.42;;
77361;Laerm;66427;51.798;10.954;2023-03-01T10:10:50;54.33;38.05;65.35;;
77361;Laerm;66427;51.798;10.954;2023-03-01T10:13:25;61.73;39.74;78.20;;
77361;Laerm;66427;51.798;10.954;2023-03-01T10:15:56;52.46;42.05;64.85;;
77361;Laerm;66427;51.798;10.954;2023-03-01T10:18:24;57.26;39.01;71.43;;
77361;Laerm;66427;51.798;10.954;2023-03-01T10:20:53;56.65;42.35;67.29;;
77361;Laerm;66427;51.798;10.954;2023-03-01T10:23:19;48.90;39.66;62.72;;
77361;Laerm;66427;51.798;10.954;2023-03-01T10:25:53;54.98;41.15;68.01;;
77361;Laerm;66427;51.798;10.954;2023-03-01T10:31:24;52.79;41.29;64.00;;
77361;Laerm;66427;51.798;10.954;2023-03-01T10:33:53;59.29;41.18;76.75;;
77361;Laerm;66427;51.798;10.954;2023-03-01T10:36:20;60.77;43.13;70.61;;
77361;Laerm;66427;51.798;10.954;2023-03-01T10:38:48;57.62;43.55;70.54;;
77361;Laerm;66427;51.798;10.954;2023-03-01T10:41:14;66.21;45.89;81.52;;
77361;Laerm;66427;51.798;10.954;2023-03-01T10:43:47;58.71;45.11;74.78;;
77361;Laerm;66427;51.798;10.954;2023-03-01T10:46:22;60.44;44.32;73.31;;
77361;Laerm;66427;51.798;10.954;2023-03-01T10:48:55;55.12;39.25;67.07;;
77361;Laerm;66427;51.798;10.954;2023-03-01T10:51:30;56.02;39.61;75.73;;
77361;Laerm;66427;51.798;10.954;2023-03-01T10:53:56;57.27;41.81;68.16;;
77361;Laerm;66427;51.798;10.954;2023-03-01T10:56:22;57.15;39.62;70.58;;
77361;Laerm;66427;51.798;10.954;2023-03-01T11:01:25;54.34;40.31;67.03;;
77361;Laerm;66427;51.798;10.954;2023-03-01T11:04:12;51.13;39.02;64.70;;
77361;Laerm;66427;51.798;10.954;2023-03-01T11:06:37;52.43;38.79;66.11;;
77361;Laerm;66427;51.798;10.954;2023-03-01T11:09:18;57.47;39.81;70.99;;
77361;Laerm;66427;51.798;10.954;2023-03-01T11:11:44;56.29;42.15;68.05;;
77361;Laerm;66427;51.798;10.954;2023-03-01T11:14:20;52.19;41.39;66.14;;
77361;Laerm;66427;51.798;10.954;2023-03-01T11:16:48;55.36;39.98;70.77;;
77361;Laerm;66427;51.798;10.954;2023-03-01T11:19:20;51.65;39.94;64.32;;
77361;Laerm;66427;51.798;10.954;2023-03-01T11:24:18;45.78;39.92;55.79;;
77361;Laerm;66427;51.798;10.954;2023-03-01T11:26:46;53.03;40.73;65.31;;
77361;Laerm;66427;51.798;10.954;2023-03-01T11:29:33;54.00;41.66;66.11;;
77361;Laerm;66427;51.798;10.954;2023-03-01T11:32:03;50.78;41.10;65.96;;
77361;Laerm;66427;51.798;10.954;2023-03-01T11:34:34;56.12;42.52;72.20;;
77361;Laerm;66427;51.798;10.954;2023-03-01T11:37:02;55.27;41.99;69.52;;
77361;Laerm;66427;51.798;10.954;2023-03-01T11:39:33;55.95;41.48;66.32;;
77361;Laerm;66427;51.798;10.954;2023-03-01T11:44:29;53.81;42.36;66.49;;
77361;Laerm;66427;51.798;10.954;2023-03-01T11:47:11;57.32;43.38;72.94;;
77361;Laerm;66427;51.798;10.954;2023-03-01T11:52:14;48.42;40.72;63.83;;
77361;Laerm;66427;51.798;10.954;2023-03-01T12:05:28;54.22;40.34;70.79;;
77361;Laerm;66427;51.798;10.954;2023-03-01T12:10:28;49.32;41.42;60.27;;
77361;Laerm;66427;51.798;10.954;2023-03-01T12:13:17;56.55;40.83;68.29;;
77361;Laerm;66427;51.798;10.954;2023-03-01T12:18:42;58.42;40.69;75.67;;
77361;Laerm;66427;51.798;10.954;2023-03-01T12:21:23;55.09;41.20;72.70;;
77361;Laerm;66427;51.798;10.954;2023-03-01T12:26:32;57.05;43.53;69.99;;
77361;Laerm;66427;51.798;10.954;2023-03-01T12:31:35;52.91;42.29;66.34;;
77361;Laerm;66427;51.798;10.954;2023-03-01T12:47:38;56.97;41.90;69.68;;
77361;Laerm;66427;51.798;10.954;2023-03-01T12:50:14;54.69;42.51;67.15;;
77361;Laerm;66427;51.798;10.954;2023-03-01T12:53:03;57.03;41.40;74.34;;
77361;Laerm;66427;51.798;10.954;2023-03-01T12:55:31;56.13;41.78;69.23;;
77361;Laerm;66427;51.798;10.954;2023-03-01T12:58:04;52.06;39.77;68.74;;
77361;Laerm;66427;51.798;10.954;2023-03-01T13:00:35;56.13;42.65;70.87;;
77361;Laerm;66427;51.798;10.954;2023-03-01T13:03:18;53.42;41.52;65.43;;
77361;Laerm;66427;51.798;10.954;2023-03-01T13:05:55;50.65;40.29;64.01;;
77361;Laerm;66427;51.798;10.954;2023-03-01T13:08:28;56.66;40.18;67.46;;
77361;Laerm;66427;51.798;10.954;2023-03-01T13:10:56;53.54;40.42;66.01;;
77361;Laerm;66427;51.798;10.954;2023-03-01T13:13:25;53.61;41.79;68.69;;
77361;Laerm;66427;51.798;10.954;2023-03-01T13:15:51;54.04;39.44;68.39;;
77361;Laerm;66427;51.798;10.954;2023-03-01T13:20:54;57.19;42.11;71.33;;
77361;Laerm;66427;51.798;10.954;2023-03-01T13:26:07;56.69;40.79;68.52;;
77361;Laerm;66427;51.798;10.954;2023-03-01T13:31:01;52.64;39.83;66.77;;
77361;Laerm;66427;51.798;10.954;2023-03-01T13:35:56;55.72;41.87;67.68;;
77361;Laerm;66427;51.798;10.954;2023-03-01T13:41:07;49.76;39.71;62.04;;
77361;Laerm;66427;51.798;10.954;2023-03-01T13:43:40;53.41;42.61;64.44;;
77361;Laerm;66427;51.798;10.954;2023-03-01T13:46:08;52.48;43.27;63.25;;
77361;Laerm;66427;51.798;10.954;2023-03-01T13:48:36;56.76;41.99;71.64;;
77361;Laerm;66427;51.798;10.954;2023-03-01T13:51:04;52.60;39.17;66.74;;
77361;Laerm;66427;51.798;10.954;2023-03-01T13:53:32;58.45;42.67;69.91;;
77361;Laerm;66427;51.798;10.954;2023-03-01T13:56:00;58.40;42.09;70.29;;
77361;Laerm;66427;51.798;10.954;2023-03-01T13:58:28;54.10;40.91;66.54;;
77361;Laerm;66427;51.798;10.954;2023-03-01T14:00:59;58.83;43.41;69.49;;
77361;Laerm;66427;51.798;10.954;2023-03-01T14:03:25;56.08;38.82;68.76;;
77361;Laerm;66427;51.798;10.954;2023-03-01T14:08:26;56.78;42.16;68.60;;
77361;Laerm;66427;51.798;10.954;2023-03-01T14:13:30;56.92;40.34;71.78;;
77361;Laerm;66427;51.798;10.954;2023-03-01T14:18:29;55.36;42.71;67.59;;
77361;Laerm;66427;51.798;10.954;2023-03-01T14:20:59;58.42;40.67;71.19;;
77361;Laerm;66427;51.798;10.954;2023-03-01T14:23:24;57.83;43.92;72.93;;
77361;Laerm;66427;51.798;10.954;2023-03-01T14:25:55;53.71;41.84;66.28;;
77361;Laerm;66427;51.798;10.954;2023-03-01T14:28:23;54.94;39.99;66.72;;
77361;Laerm;66427;51.798;10.954;2023-03-01T14:30:52;56.67;39.74;68.72;;
77361;Laerm;66427;51.798;10.954;2023-03-01T14:33:31;57.72;40.49;72.87;;
77361;Laerm;66427;51.798;10.954;2023-03-01T14:36:02;52.89;42.67;66.07;;
77361;Laerm;66427;51.798;10.954;2023-03-01T14:38:33;53.74;42.90;66.43;;
77361;Laerm;66427;51.798;10.954;2023-03-01T14:41:01;57.62;44.03;69.99;;
77361;Laerm;66427;51.798;10.954;2023-03-01T14:43:29;51.56;43.26;65.95;;
77361;Laerm;66427;51.798;10.954;2023-03-01T14:45:55;52.76;41.58;66.24;;
77361;Laerm;66427;51.798;10.954;2023-03-01T14:48:21;54.90;42.87;68.63;;
77361;Laerm;66427;51.798;10.954;2023-03-01T14:50:47;54.23;41.28;66.47;;
77361;Laerm;66427;51.798;10.954;2023-03-01T14:53:22;55.20;42.23;65.61;;
77361;Laerm;66427;51.798;10.954;2023-03-01T14:55:50;54.53;42.36;66.72;;
77361;Laerm;66427;51.798;10.954;2023-03-01T14:58:19;57.23;40.30;71.10;;
77361;Laerm;66427;51.798;10.954;2023-03-01T15:00:53;56.90;43.11;74.23;;
77361;Laerm;66427;51.798;10.954;2023-03-01T15:03:23;56.13;41.54;69.56;;
77361;Laerm;66427;51.798;10.954;2023-03-01T15:05:50;54.74;41.97;66.13;;